Charter Quote
Worldwide +1-877-727-2538 Call
Select Language Lang
SAFETY RELIABILITY EXPERIENCE

Private Jet Charter Services - Gunsa (ZUAL)

Paramount Business Jets offers private jet charter flights and luxury airliner charters to and from Gunsa.

AIRPORT INFORMATION
ICAOZUAL
LOCATIONShiquanhe, China
FACILITY TYPEAIRPORT

At Paramount Business Jets you can hire chartered private jets to and from Gunsa with as little as 4 hours of notice. All flights booked via Paramount Business Jets are operated by certified direct air carriers that meet and exceed the FAA part 135 and 121 protocol or a foreign equivalent safety authority. Furthermore, Paramount Business Jets subscribes to ARGUS for their third party safety checks of operators, aircraft, and crews prior each and every flight to and from Gunsa and worldwide.

  • Quote a trip using Gunsa or call us 24/7 - 365 days a year at +1-877-727-2538.
Questions? Call +1-877-727-2538

METAR Weather Data at Gunsa, ZUAL

STATIONZUAL
OBSERVEDSat Feb 2, 00:00 UTC
NOWMon Oct 21, 19:51 UTC
AGE58867:51 hr ago
WINDNW at 4 mph
VISIBILITY16 miles
CLOUDSmostly cloudy
TEMP5°F (-15°C)
WIND CHILL-3°F (-19°C)
DEWPT-2°F (-19°C)
HUMIDITY72%
BAROMETER1028 hPa (30.36 in Hg)
METARZUAL 020000Z 31002MPS 250V040 9999 BKN080 M15/M19 Q1028 NOSIG

Call us on +1-877-727-2538 (24 Hours) to Hire a Private Jet or Get a Quick Quote.

Find Airports Near any Location

Processing
...